sensor_id;sensor_type;location;lat;lon;timestamp;pressure;altitude;pressure_sealevel;temperature;humidity
54806;BME280;62866;55.776;37.496;2023-02-12T00:01:37;98381.84;;;-0.51;98.80
54806;BME280;62866;55.776;37.496;2023-02-12T00:04:02;98381.09;;;-0.61;98.69
54806;BME280;62866;55.776;37.496;2023-02-12T00:06:28;98396.31;;;-0.65;98.77
54806;BME280;62866;55.776;37.496;2023-02-12T00:08:55;98391.97;;;-0.74;98.34
54806;BME280;62866;55.776;37.496;2023-02-12T00:11:27;98414.47;;;-0.71;98.05
54806;BME280;62866;55.776;37.496;2023-02-12T00:13:53;98414.75;;;-0.74;97.71
54806;BME280;62866;55.776;37.496;2023-02-12T00:16:22;98430.69;;;-0.76;97.40
54806;BME280;62866;55.776;37.496;2023-02-12T00:18:51;98432.78;;;-0.80;97.59
54806;BME280;62866;55.776;37.496;2023-02-12T00:21:17;98442.44;;;-0.80;97.31
54806;BME280;62866;55.776;37.496;2023-02-12T00:23:43;98455.47;;;-0.88;97.29
54806;BME280;62866;55.776;37.496;2023-02-12T00:26:10;98458.31;;;-0.99;97.50
54806;BME280;62866;55.776;37.496;2023-02-12T00:28:36;98467.75;;;-1.06;97.41
54806;BME280;62866;55.776;37.496;2023-02-12T00:31:27;98471.50;;;-1.09;97.84
54806;BME280;62866;55.776;37.496;2023-02-12T00:33:54;98478.84;;;-1.12;97.80
54806;BME280;62866;55.776;37.496;2023-02-12T00:36:22;98475.84;;;-1.18;98.30
54806;BME280;62866;55.776;37.496;2023-02-12T00:38:49;98490.97;;;-1.11;98.18
54806;BME280;62866;55.776;37.496;2023-02-12T00:41:15;98502.44;;;-1.12;97.76
54806;BME280;62866;55.776;37.496;2023-02-12T00:43:40;98510.59;;;-1.16;97.99
54806;BME280;62866;55.776;37.496;2023-02-12T00:46:06;98509.09;;;-1.18;97.88
54806;BME280;62866;55.776;37.496;2023-02-12T00:48:33;98505.94;;;-1.22;97.89
54806;BME280;62866;55.776;37.496;2023-02-12T00:50:58;98519.19;;;-1.23;97.91
54806;BME280;62866;55.776;37.496;2023-02-12T00:53:24;98520.03;;;-1.32;97.55
54806;BME280;62866;55.776;37.496;2023-02-12T00:55:49;98530.00;;;-1.36;97.22
54806;BME280;62866;55.776;37.496;2023-02-12T00:58:15;98548.50;;;-1.37;97.69
54806;BME280;62866;55.776;37.496;2023-02-12T01:00:42;98539.13;;;-1.40;97.37
54806;BME280;62866;55.776;37.496;2023-02-12T01:03:08;98562.84;;;-1.41;97.68
54806;BME280;62866;55.776;37.496;2023-02-12T01:05:34;98573.19;;;-1.40;97.19
54806;BME280;62866;55.776;37.496;2023-02-12T01:08:00;98575.44;;;-1.45;97.20
54806;BME280;62866;55.776;37.496;2023-02-12T01:10:26;98573.91;;;-1.47;96.98
54806;BME280;62866;55.776;37.496;2023-02-12T01:12:52;98576.69;;;-1.49;97.05
54806;BME280;62866;55.776;37.496;2023-02-12T01:15:18;98598.19;;;-1.45;96.45
54806;BME280;62866;55.776;37.496;2023-02-12T01:17:44;98609.50;;;-1.45;96.53
54806;BME280;62866;55.776;37.496;2023-02-12T01:20:13;98616.13;;;-1.50;96.42
54806;BME280;62866;55.776;37.496;2023-02-12T01:22:39;98630.50;;;-1.55;96.38
54806;BME280;62866;55.776;37.496;2023-02-12T01:25:05;98624.44;;;-1.65;95.69
54806;BME280;62866;55.776;37.496;2023-02-12T01:27:31;98636.31;;;-1.70;95.50
54806;BME280;62866;55.776;37.496;2023-02-12T01:29:57;98647.38;;;-1.76;95.61
54806;BME280;62866;55.776;37.496;2023-02-12T01:32:22;98648.31;;;-1.77;95.47
54806;BME280;62866;55.776;37.496;2023-02-12T01:34:48;98658.94;;;-1.79;95.10
54806;BME280;62866;55.776;37.496;2023-02-12T01:37:14;98668.16;;;-1.75;94.81
54806;BME280;62866;55.776;37.496;2023-02-12T01:39:40;98663.09;;;-1.76;94.81
54806;BME280;62866;55.776;37.496;2023-02-12T01:42:05;98687.75;;;-1.69;94.17
54806;BME280;62866;55.776;37.496;2023-02-12T01:44:32;98680.28;;;-1.74;94.38
54806;BME280;62866;55.776;37.496;2023-02-12T01:47:04;98686.53;;;-1.84;94.18
54806;BME280;62866;55.776;37.496;2023-02-12T01:49:37;98704.03;;;-1.85;94.14
54806;BME280;62866;55.776;37.496;2023-02-12T01:52:15;98707.34;;;-1.93;94.92
54806;BME280;62866;55.776;37.496;2023-02-12T01:54:45;98707.72;;;-1.97;94.73
54806;BME280;62866;55.776;37.496;2023-02-12T01:57:12;98712.00;;;-1.96;94.79
54806;BME280;62866;55.776;37.496;2023-02-12T01:59:39;98728.41;;;-1.94;94.39
54806;BME280;62866;55.776;37.496;2023-02-12T02:02:07;98740.81;;;-1.96;93.79
54806;BME280;62866;55.776;37.496;2023-02-12T02:04:40;98711.72;;;-2.12;93.60
54806;BME280;62866;55.776;37.496;2023-02-12T02:07:09;98739.72;;;-2.03;94.07
54806;BME280;62866;55.776;37.496;2023-02-12T02:09:37;98751.94;;;-2.13;94.08
54806;BME280;62866;55.776;37.496;2023-02-12T02:12:04;98747.66;;;-2.14;94.07
54806;BME280;62866;55.776;37.496;2023-02-12T02:14:51;98766.69;;;-2.12;94.34
54806;BME280;62866;55.776;37.496;2023-02-12T02:20:35;98775.38;;;-2.12;93.91
54806;BME280;62866;55.776;37.496;2023-02-12T02:23:24;98785.03;;;-2.12;94.02
54806;BME280;62866;55.776;37.496;2023-02-12T02:26:08;98795.06;;;-2.17;92.88
54806;BME280;62866;55.776;37.496;2023-02-12T02:31:25;98802.19;;;-2.29;93.18
54806;BME280;62866;55.776;37.496;2023-02-12T02:34:02;98799.69;;;-2.31;93.75
54806;BME280;62866;55.776;37.496;2023-02-12T02:39:07;98825.88;;;-2.31;92.75
54806;BME280;62866;55.776;37.496;2023-02-12T02:44:02;98851.47;;;-2.34;93.28
54806;BME280;62866;55.776;37.496;2023-02-12T02:46:50;98862.94;;;-2.35;93.66
54806;BME280;62866;55.776;37.496;2023-02-12T02:49:30;98852.13;;;-2.42;93.82
54806;BME280;62866;55.776;37.496;2023-02-12T02:52:03;98873.25;;;-2.34;94.07
54806;BME280;62866;55.776;37.496;2023-02-12T02:54:36;98878.34;;;-2.32;94.20
54806;BME280;62866;55.776;37.496;2023-02-12T02:57:10;98861.22;;;-2.46;94.29
54806;BME280;62866;55.776;37.496;2023-02-12T02:59:42;98898.75;;;-2.36;94.34
54806;BME280;62866;55.776;37.496;2023-02-12T03:02:32;98896.25;;;-2.37;93.96
54806;BME280;62866;55.776;37.496;2023-02-12T03:05:09;98896.06;;;-2.45;94.02
54806;BME280;62866;55.776;37.496;2023-02-12T03:07:41;98897.34;;;-2.40;94.49
54806;BME280;62866;55.776;37.496;2023-02-12T03:10:16;98922.63;;;-2.29;93.96
54806;BME280;62866;55.776;37.496;2023-02-12T03:12:56;98924.47;;;-2.41;94.02
54806;BME280;62866;55.776;37.496;2023-02-12T03:17:57;98933.72;;;-2.37;93.95
54806;BME280;62866;55.776;37.496;2023-02-12T03:20:30;98945.88;;;-2.36;93.58
54806;BME280;62866;55.776;37.496;2023-02-12T03:23:18;98946.09;;;-2.39;93.22
54806;BME280;62866;55.776;37.496;2023-02-12T03:28:27;98958.16;;;-2.47;93.65
54806;BME280;62866;55.776;37.496;2023-02-12T03:34:00;98970.34;;;-2.57;93.03
54806;BME280;62866;55.776;37.496;2023-02-12T03:36:37;98985.09;;;-2.56;93.10
54806;BME280;62866;55.776;37.496;2023-02-12T03:42:16;99003.00;;;-2.73;93.54
54806;BME280;62866;55.776;37.496;2023-02-12T03:44:52;99004.66;;;-2.72;93.13
54806;BME280;62866;55.776;37.496;2023-02-12T03:50:12;99013.00;;;-2.78;93.06
54806;BME280;62866;55.776;37.496;2023-02-12T03:52:40;99027.63;;;-2.75;93.09
54806;BME280;62866;55.776;37.496;2023-02-12T03:55:06;99020.97;;;-2.79;92.73
54806;BME280;62866;55.776;37.496;2023-02-12T03:57:38;99019.19;;;-2.79;93.30
54806;BME280;62866;55.776;37.496;2023-02-12T04:00:09;99033.59;;;-2.84;92.72
54806;BME280;62866;55.776;37.496;2023-02-12T04:02:35;99040.13;;;-2.90;92.68
54806;BME280;62866;55.776;37.496;2023-02-12T04:05:05;99054.06;;;-2.89;93.13
54806;BME280;62866;55.776;37.496;2023-02-12T04:07:31;99046.09;;;-2.88;93.16
54806;BME280;62866;55.776;37.496;2023-02-12T04:09:57;99043.97;;;-2.94;91.93
54806;BME280;62866;55.776;37.496;2023-02-12T04:13:03;99059.28;;;-2.89;91.99
54806;BME280;62866;55.776;37.496;2023-02-12T04:18:18;99081.03;;;-3.00;90.30
54806;BME280;62866;55.776;37.496;2023-02-12T04:20:59;99063.50;;;-3.20;90.84
54806;BME280;62866;55.776;37.496;2023-02-12T04:26:42;99114.47;;;-3.15;91.92
54806;BME280;62866;55.776;37.496;2023-02-12T04:37:15;99124.66;;;-3.23;90.78
54806;BME280;62866;55.776;37.496;2023-02-12T04:39:43;99139.53;;;-3.23;90.92
54806;BME280;62866;55.776;37.496;2023-02-12T04:42:10;99129.69;;;-3.20;90.27
54806;BME280;62866;55.776;37.496;2023-02-12T04:44:38;99139.63;;;-3.25;89.46
54806;BME280;62866;55.776;37.496;2023-02-12T04:47:04;99151.19;;;-3.27;89.57
54806;BME280;62866;55.776;37.496;2023-02-12T04:49:30;99147.34;;;-3.34;88.99
54806;BME280;62866;55.776;37.496;2023-02-12T04:51:56;99163.84;;;-3.34;88.87
54806;BME280;62866;55.776;37.496;2023-02-12T04:54:22;99161.13;;;-3.32;88.90
54806;BME280;62866;55.776;37.496;2023-02-12T04:56:48;99174.09;;;-3.31;88.25
54806;BME280;62866;55.776;37.496;2023-02-12T04:59:14;99166.47;;;-3.34;89.15
54806;BME280;62866;55.776;37.496;2023-02-12T05:01:41;99176.72;;;-3.31;89.19
54806;BME280;62866;55.776;37.496;2023-02-12T05:04:09;99191.56;;;-3.31;88.76
54806;BME280;62866;55.776;37.496;2023-02-12T05:06:35;99186.69;;;-3.36;88.27
54806;BME280;62866;55.776;37.496;2023-02-12T05:09:01;99204.03;;;-3.35;88.47
54806;BME280;62866;55.776;37.496;2023-02-12T05:11:27;99183.41;;;-3.51;88.43
54806;BME280;62866;55.776;37.496;2023-02-12T05:13:53;99223.72;;;-3.42;88.08
54806;BME280;62866;55.776;37.496;2023-02-12T05:16:19;99206.03;;;-3.38;87.60
54806;BME280;62866;55.776;37.496;2023-02-12T05:18:46;99223.88;;;-3.32;88.11
54806;BME280;62866;55.776;37.496;2023-02-12T05:21:12;99233.38;;;-3.31;88.28
54806;BME280;62866;55.776;37.496;2023-02-12T05:23:39;99227.56;;;-3.35;88.63
54806;BME280;62866;55.776;37.496;2023-02-12T05:26:07;99250.84;;;-3.32;89.28
54806;BME280;62866;55.776;37.496;2023-02-12T05:28:33;99241.09;;;-3.30;88.64
54806;BME280;62866;55.776;37.496;2023-02-12T05:31:00;99247.38;;;-3.32;88.80
54806;BME280;62866;55.776;37.496;2023-02-12T05:33:26;99264.97;;;-3.34;88.62
54806;BME280;62866;55.776;37.496;2023-02-12T05:35:52;99271.59;;;-3.41;88.72
54806;BME280;62866;55.776;37.496;2023-02-12T05:38:17;99267.44;;;-3.44;89.62
54806;BME280;62866;55.776;37.496;2023-02-12T05:40:43;99271.28;;;-3.37;89.07
54806;BME280;62866;55.776;37.496;2023-02-12T05:43:09;99273.38;;;-3.42;89.92
54806;BME280;62866;55.776;37.496;2023-02-12T05:45:35;99276.59;;;-3.38;90.13
54806;BME280;62866;55.776;37.496;2023-02-12T05:48:02;99302.00;;;-3.40;89.70
54806;BME280;62866;55.776;37.496;2023-02-12T05:50:28;99284.34;;;-3.37;89.35
54806;BME280;62866;55.776;37.496;2023-02-12T05:52:54;99294.06;;;-3.39;89.08
54806;BME280;62866;55.776;37.496;2023-02-12T05:55:20;99301.69;;;-3.36;89.16
54806;BME280;62866;55.776;37.496;2023-02-12T05:57:45;99304.41;;;-3.37;88.70
54806;BME280;62866;55.776;37.496;2023-02-12T06:00:11;99310.69;;;-3.40;87.82
54806;BME280;62866;55.776;37.496;2023-02-12T06:02:37;99313.31;;;-3.40;86.88
54806;BME280;62866;55.776;37.496;2023-02-12T06:05:03;99312.72;;;-3.43;86.76
54806;BME280;62866;55.776;37.496;2023-02-12T06:07:28;99323.03;;;-3.42;86.98
54806;BME280;62866;55.776;37.496;2023-02-12T06:09:54;99352.72;;;-3.43;86.38
54806;BME280;62866;55.776;37.496;2023-02-12T06:12:20;99336.44;;;-3.47;86.51
54806;BME280;62866;55.776;37.496;2023-02-12T06:14:45;99334.22;;;-3.40;85.69
54806;BME280;62866;55.776;37.496;2023-02-12T06:17:11;99353.63;;;-3.31;86.53
54806;BME280;62866;55.776;37.496;2023-02-12T06:19:36;99363.47;;;-3.35;86.22
54806;BME280;62866;55.776;37.496;2023-02-12T06:22:02;99368.47;;;-3.32;85.99
54806;BME280;62866;55.776;37.496;2023-02-12T06:24:28;99383.84;;;-3.27;86.09
54806;BME280;62866;55.776;37.496;2023-02-12T06:26:53;99379.56;;;-3.17;86.11
54806;BME280;62866;55.776;37.496;2023-02-12T06:29:19;99404.56;;;-3.13;85.59
54806;BME280;62866;55.776;37.496;2023-02-12T06:31:45;99402.06;;;-3.15;84.52
54806;BME280;62866;55.776;37.496;2023-02-12T06:34:12;99412.19;;;-3.10;84.44
54806;BME280;62866;55.776;37.496;2023-02-12T06:36:40;99414.09;;;-3.12;83.64
54806;BME280;62866;55.776;37.496;2023-02-12T06:39:06;99430.94;;;-3.16;83.62
54806;BME280;62866;55.776;37.496;2023-02-12T06:41:33;99429.09;;;-3.27;83.69
54806;BME280;62866;55.776;37.496;2023-02-12T06:43:58;99443.22;;;-3.29;84.16
54806;BME280;62866;55.776;37.496;2023-02-12T06:46:24;99442.97;;;-3.26;84.16
54806;BME280;62866;55.776;37.496;2023-02-12T06:48:56;99454.81;;;-3.21;83.59
54806;BME280;62866;55.776;37.496;2023-02-12T06:51:23;99451.56;;;-3.24;82.11
54806;BME280;62866;55.776;37.496;2023-02-12T06:53:50;99467.69;;;-3.30;82.12
54806;BME280;62866;55.776;37.496;2023-02-12T06:56:16;99461.00;;;-3.34;81.74
54806;BME280;62866;55.776;37.496;2023-02-12T06:58:44;99461.69;;;-3.43;82.77
54806;BME280;62866;55.776;37.496;2023-02-12T07:01:12;99461.44;;;-3.40;83.83
54806;BME280;62866;55.776;37.496;2023-02-12T07:03:46;99475.19;;;-3.26;83.75
54806;BME280;62866;55.776;37.496;2023-02-12T07:06:12;99481.22;;;-3.13;83.84
54806;BME280;62866;55.776;37.496;2023-02-12T07:08:39;99481.34;;;-3.14;83.33
54806;BME280;62866;55.776;37.496;2023-02-12T07:11:05;99497.03;;;-3.14;82.65
54806;BME280;62866;55.776;37.496;2023-02-12T07:13:31;99505.31;;;-3.20;81.96
54806;BME280;62866;55.776;37.496;2023-02-12T07:16:03;99513.69;;;-3.28;82.60
54806;BME280;62866;55.776;37.496;2023-02-12T07:18:29;99491.72;;;-3.25;80.33
54806;BME280;62866;55.776;37.496;2023-02-12T07:20:55;99492.75;;;-3.15;80.03
54806;BME280;62866;55.776;37.496;2023-02-12T07:23:21;99515.81;;;-3.09;80.49
54806;BME280;62866;55.776;37.496;2023-02-12T07:28:20;99492.38;;;-2.98;80.80
54806;BME280;62866;55.776;37.496;2023-02-12T07:30:46;99515.97;;;-2.87;80.31
54806;BME280;62866;55.776;37.496;2023-02-12T07:33:12;99503.91;;;-2.77;80.63
54806;BME280;62866;55.776;37.496;2023-02-12T07:35:37;99502.69;;;-2.60;80.22
54806;BME280;62866;55.776;37.496;2023-02-12T07:38:03;99537.56;;;-2.48;78.41
54806;BME280;62866;55.776;37.496;2023-02-12T07:40:28;99532.78;;;-2.54;78.07
54806;BME280;62866;55.776;37.496;2023-02-12T07:42:54;99527.06;;;-2.59;78.64
54806;BME280;62866;55.776;37.496;2023-02-12T07:45:20;99542.34;;;-2.66;78.41
54806;BME280;62866;55.776;37.496;2023-02-12T07:47:46;99545.31;;;-2.71;78.73
54806;BME280;62866;55.776;37.496;2023-02-12T07:50:11;99555.63;;;-2.80;78.09
54806;BME280;62866;55.776;37.496;2023-02-12T07:52:37;99561.69;;;-2.92;78.65
54806;BME280;62866;55.776;37.496;2023-02-12T07:55:02;99558.25;;;-2.93;78.51
54806;BME280;62866;55.776;37.496;2023-02-12T07:57:28;99557.53;;;-2.95;79.56
54806;BME280;62866;55.776;37.496;2023-02-12T07:59:53;99569.69;;;-2.94;79.71
54806;BME280;62866;55.776;37.496;2023-02-12T08:02:19;99568.19;;;-2.85;78.24
54806;BME280;62866;55.776;37.496;2023-02-12T08:04:45;99572.44;;;-2.72;77.85
54806;BME280;62866;55.776;37.496;2023-02-12T08:07:10;99588.06;;;-2.59;78.25
54806;BME280;62866;55.776;37.496;2023-02-12T08:09:36;99574.56;;;-2.53;76.79
54806;BME280;62866;55.776;37.496;2023-02-12T08:12:01;99586.75;;;-2.41;76.64
54806;BME280;62866;55.776;37.496;2023-02-12T08:14:27;99592.25;;;-2.33;77.34
54806;BME280;62866;55.776;37.496;2023-02-12T08:16:53;99611.81;;;-2.25;76.44
54806;BME280;62866;55.776;37.496;2023-02-12T08:19:19;99605.25;;;-2.31;75.35
54806;BME280;62866;55.776;37.496;2023-02-12T08:21:44;99611.53;;;-2.34;75.67
54806;BME280;62866;55.776;37.496;2023-02-12T08:24:11;99616.06;;;-2.36;75.48
54806;BME280;62866;55.776;37.496;2023-02-12T08:26:38;99613.75;;;-2.40;75.91
54806;BME280;62866;55.776;37.496;2023-02-12T08:29:05;99630.41;;;-2.41;75.54
54806;BME280;62866;55.776;37.496;2023-02-12T08:31:38;99644.34;;;-2.41;75.04
54806;BME280;62866;55.776;37.496;2023-02-12T08:34:05;99638.94;;;-2.50;73.79
54806;BME280;62866;55.776;37.496;2023-02-12T08:36:37;99634.94;;;-2.43;73.50
54806;BME280;62866;55.776;37.496;2023-02-12T08:39:03;99641.78;;;-2.53;74.60
54806;BME280;62866;55.776;37.496;2023-02-12T08:41:29;99647.47;;;-2.59;75.51
54806;BME280;62866;55.776;37.496;2023-02-12T08:43:57;99652.66;;;-2.47;75.38
54806;BME280;62866;55.776;37.496;2023-02-12T08:46:25;99659.94;;;-2.15;74.86
54806;BME280;62866;55.776;37.496;2023-02-12T08:48:56;99628.88;;;-2.44;73.92
54806;BME280;62866;55.776;37.496;2023-02-12T08:51:25;99645.47;;;-2.32;73.94
54806;BME280;62866;55.776;37.496;2023-02-12T08:53:56;99661.53;;;-2.13;73.67
54806;BME280;62866;55.776;37.496;2023-02-12T08:56:22;99650.88;;;-2.22;73.52
54806;BME280;62866;55.776;37.496;2023-02-12T08:58:49;99651.44;;;-2.30;73.66
54806;BME280;62866;55.776;37.496;2023-02-12T09:01:17;99633.59;;;-2.25;73.10
54806;BME280;62866;55.776;37.496;2023-02-12T09:03:44;99673.84;;;-2.02;73.82
54806;BME280;62866;55.776;37.496;2023-02-12T09:06:10;99677.31;;;-2.02;73.86
54806;BME280;62866;55.776;37.496;2023-02-12T09:08:36;99679.03;;;-2.13;72.77
54806;BME280;62866;55.776;37.496;2023-02-12T09:11:07;99686.69;;;-2.23;72.61
54806;BME280;62866;55.776;37.496;2023-02-12T09:13:34;99697.16;;;-2.10;73.11
54806;BME280;62866;55.776;37.496;2023-02-12T09:16:01;99690.00;;;-2.08;73.60
54806;BME280;62866;55.776;37.496;2023-02-12T09:18:28;99687.25;;;-2.07;73.63
54806;BME280;62866;55.776;37.496;2023-02-12T09:20:54;99693.72;;;-2.00;73.99
54806;BME280;62866;55.776;37.496;2023-02-12T09:23:19;99707.94;;;-1.91;72.29
54806;BME280;62866;55.776;37.496;2023-02-12T09:25:45;99701.44;;;-1.85;70.59
54806;BME280;62866;55.776;37.496;2023-02-12T09:28:13;99691.78;;;-2.09;70.03
54806;BME280;62866;55.776;37.496;2023-02-12T09:30:39;99700.16;;;-1.80;69.90
54806;BME280;62866;55.776;37.496;2023-02-12T09:33:05;99701.66;;;-1.88;69.75
54806;BME280;62866;55.776;37.496;2023-02-12T09:35:35;99702.31;;;-1.74;69.49
54806;BME280;62866;55.776;37.496;2023-02-12T09:38:01;99710.78;;;-1.70;69.07
54806;BME280;62866;55.776;37.496;2023-02-12T09:46:31;99701.19;;;-2.06;68.67
54806;BME280;62866;55.776;37.496;2023-02-12T09:51:39;99721.59;;;-1.99;70.41
54806;BME280;62866;55.776;37.496;2023-02-12T09:54:12;99707.81;;;-2.37;70.56
54806;BME280;62866;55.776;37.496;2023-02-12T09:56:42;99718.22;;;-2.24;70.75
54806;BME280;62866;55.776;37.496;2023-02-12T09:59:13;99712.06;;;-2.23;70.54
54806;BME280;62866;55.776;37.496;2023-02-12T10:01:43;99727.56;;;-1.97;70.20
54806;BME280;62866;55.776;37.496;2023-02-12T10:04:08;99718.41;;;-1.91;69.89
54806;BME280;62866;55.776;37.496;2023-02-12T10:12:20;99731.25;;;-1.99;68.83
54806;BME280;62866;55.776;37.496;2023-02-12T10:17:42;99742.56;;;-1.75;69.70
54806;BME280;62866;55.776;37.496;2023-02-12T10:25:57;99751.72;;;-1.80;69.80
54806;BME280;62866;55.776;37.496;2023-02-12T10:28:37;99758.13;;;-1.61;69.23
54806;BME280;62866;55.776;37.496;2023-02-12T10:31:15;99730.66;;;-2.03;69.97
54806;BME280;62866;55.776;37.496;2023-02-12T10:33:48;99777.28;;;-2.08;70.44
54806;BME280;62866;55.776;37.496;2023-02-12T10:36:43;99761.34;;;-2.05;70.75
54806;BME280;62866;55.776;37.496;2023-02-12T10:41:42;99764.41;;;-2.11;70.32
54806;BME280;62866;55.776;37.496;2023-02-12T10:44:10;99776.72;;;-2.00;70.72
54806;BME280;62866;55.776;37.496;2023-02-12T10:46:36;99779.63;;;-1.92;70.05
54806;BME280;62866;55.776;37.496;2023-02-12T10:49:02;99771.66;;;-1.91;69.71
54806;BME280;62866;55.776;37.496;2023-02-12T10:51:58;99779.59;;;-1.79;69.75
54806;BME280;62866;55.776;37.496;2023-02-12T10:54:46;99792.34;;;-1.75;69.52
54806;BME280;62866;55.776;37.496;2023-02-12T10:57:23;99789.78;;;-1.51;68.41
54806;BME280;62866;55.776;37.496;2023-02-12T10:59:51;99793.41;;;-1.30;69.16
54806;BME280;62866;55.776;37.496;2023-02-12T11:02:29;99802.19;;;-1.18;68.85
54806;BME280;62866;55.776;37.496;2023-02-12T11:04:57;99813.78;;;-0.98;69.10
54806;BME280;62866;55.776;37.496;2023-02-12T11:07:24;99813.34;;;-0.92;68.17
54806;BME280;62866;55.776;37.496;2023-02-12T11:09:53;99814.16;;;-0.92;68.58
54806;BME280;62866;55.776;37.496;2023-02-12T11:12:32;99826.00;;;-0.86;69.31
54806;BME280;62866;55.776;37.496;2023-02-12T11:15:14;99812.13;;;-0.99;69.45
54806;BME280;62866;55.776;37.496;2023-02-12T11:17:43;99836.13;;;-1.28;68.83
54806;BME280;62866;55.776;37.496;2023-02-12T11:22:52;99838.97;;;-1.67;69.32
54806;BME280;62866;55.776;37.496;2023-02-12T11:25:19;99833.84;;;-1.93;69.78
54806;BME280;62866;55.776;37.496;2023-02-12T11:27:58;99856.16;;;-2.00;70.45
54806;BME280;62866;55.776;37.496;2023-02-12T11:30:24;99839.44;;;-2.22;70.30
54806;BME280;62866;55.776;37.496;2023-02-12T11:32:50;99838.72;;;-2.37;70.51
54806;BME280;62866;55.776;37.496;2023-02-12T11:35:17;99861.41;;;-2.25;70.58
54806;BME280;62866;55.776;37.496;2023-02-12T11:37:51;99858.94;;;-2.26;71.62
54806;BME280;62866;55.776;37.496;2023-02-12T11:40:30;99858.41;;;-2.19;71.71
54806;BME280;62866;55.776;37.496;2023-02-12T11:43:02;99869.47;;;-2.15;71.55
54806;BME280;62866;55.776;37.496;2023-02-12T11:45:41;99858.50;;;-2.20;70.84
54806;BME280;62866;55.776;37.496;2023-02-12T11:48:22;99874.97;;;-2.18;71.00
54806;BME280;62866;55.776;37.496;2023-02-12T11:50:51;99879.22;;;-2.05;71.28
54806;BME280;62866;55.776;37.496;2023-02-12T11:53:31;99882.44;;;-1.88;71.49
54806;BME280;62866;55.776;37.496;2023-02-12T11:56:06;99886.16;;;-2.04;71.43
54806;BME280;62866;55.776;37.496;2023-02-12T11:58:32;99890.00;;;-1.97;71.98
54806;BME280;62866;55.776;37.496;2023-02-12T12:03:52;99901.25;;;-2.20;70.46
54806;BME280;62866;55.776;37.496;2023-02-12T12:11:37;99919.97;;;-2.51;70.74
54806;BME280;62866;55.776;37.496;2023-02-12T12:14:15;99920.13;;;-2.80;70.97
54806;BME280;62866;55.776;37.496;2023-02-12T12:19:58;99938.03;;;-2.74;70.73
54806;BME280;62866;55.776;37.496;2023-02-12T12:22:43;99940.31;;;-2.82;71.08
54806;BME280;62866;55.776;37.496;2023-02-12T12:25:29;99939.53;;;-2.96;72.31
54806;BME280;62866;55.776;37.496;2023-02-12T12:30:40;99950.69;;;-2.68;71.99
54806;BME280;62866;55.776;37.496;2023-02-12T12:39:23;99978.53;;;-2.40;71.55
54806;BME280;62866;55.776;37.496;2023-02-12T12:44:48;99987.31;;;-2.41;71.77
54806;BME280;62866;55.776;37.496;2023-02-12T12:47:35;99990.34;;;-2.34;71.00
54806;BME280;62866;55.776;37.496;2023-02-12T12:52:59;99995.06;;;-2.52;71.67
54806;BME280;62866;55.776;37.496;2023-02-12T13:08:06;100019.84;;;-3.11;71.61
54806;BME280;62866;55.776;37.496;2023-02-12T13:10:39;100021.88;;;-3.16;70.97
54806;BME280;62866;55.776;37.496;2023-02-12T13:13:38;100030.28;;;-3.25;71.77
54806;BME280;62866;55.776;37.496;2023-02-12T13:16:32;100028.16;;;-3.33;72.19
54806;BME280;62866;55.776;37.496;2023-02-12T13:27:06;100049.75;;;-3.43;73.30
54806;BME280;62866;55.776;37.496;2023-02-12T13:29:52;100044.34;;;-3.55;73.55
54806;BME280;62866;55.776;37.496;2023-02-12T13:32:29;100049.81;;;-3.59;73.90
54806;BME280;62866;55.776;37.496;2023-02-12T13:34:57;100050.13;;;-3.64;73.21
54806;BME280;62866;55.776;37.496;2023-02-12T13:37:37;100059.16;;;-3.69;73.45
54806;BME280;62866;55.776;37.496;2023-02-12T13:40:05;100039.66;;;-3.78;73.70
54806;BME280;62866;55.776;37.496;2023-02-12T13:48:03;100059.50;;;-3.75;73.76
54806;BME280;62866;55.776;37.496;2023-02-12T13:53:00;100069.03;;;-3.89;74.62
54806;BME280;62866;55.776;37.496;2023-02-12T13:55:33;100052.28;;;-4.00;74.31
54806;BME280;62866;55.776;37.496;2023-02-12T14:01:12;100077.09;;;-4.07;75.01
54806;BME280;62866;55.776;37.496;2023-02-12T14:03:39;100056.09;;;-4.20;75.79
54806;BME280;62866;55.776;37.496;2023-02-12T14:06:19;100066.09;;;-4.12;75.33
54806;BME280;62866;55.776;37.496;2023-02-12T14:11:17;100070.63;;;-4.16;75.69
54806;BME280;62866;55.776;37.496;2023-02-12T14:13:54;100081.66;;;-4.11;76.20
54806;BME280;62866;55.776;37.496;2023-02-12T14:23:18;100089.03;;;-4.33;76.38
54806;BME280;62866;55.776;37.496;2023-02-12T14:24:57;100090.22;;;-4.39;76.49
54806;BME280;62866;55.776;37.496;2023-02-12T14:27:42;100108.66;;;-4.42;76.70
54806;BME280;62866;55.776;37.496;2023-02-12T14:40:48;100124.66;;;-4.48;77.18
54806;BME280;62866;55.776;37.496;2023-02-12T14:43:36;100125.94;;;-4.55;78.11
54806;BME280;62866;55.776;37.496;2023-02-12T14:53:58;100141.25;;;-4.80;78.43
54806;BME280;62866;55.776;37.496;2023-02-12T14:56:25;100148.66;;;-4.73;78.35
54806;BME280;62866;55.776;37.496;2023-02-12T14:58:52;100150.41;;;-4.73;78.35
54806;BME280;62866;55.776;37.496;2023-02-12T15:01:29;100155.97;;;-4.79;78.35
54806;BME280;62866;55.776;37.496;2023-02-12T15:03:58;100172.47;;;-4.79;78.59
54806;BME280;62866;55.776;37.496;2023-02-12T15:06:35;100175.22;;;-4.82;78.18
54806;BME280;62866;55.776;37.496;2023-02-12T15:09:19;100159.16;;;-4.90;78.57
54806;BME280;62866;55.776;37.496;2023-02-12T15:11:54;100173.72;;;-4.86;78.82
54806;BME280;62866;55.776;37.496;2023-02-12T15:14:30;100172.28;;;-4.91;78.60
54806;BME280;62866;55.776;37.496;2023-02-12T15:19:45;100187.84;;;-4.90;78.67
54806;BME280;62866;55.776;37.496;2023-02-12T15:22:23;100177.31;;;-5.04;78.91
54806;BME280;62866;55.776;37.496;2023-02-12T15:27:45;100191.00;;;-5.01;79.00
54806;BME280;62866;55.776;37.496;2023-02-12T15:30:16;100193.53;;;-4.99;78.98
54806;BME280;62866;55.776;37.496;2023-02-12T15:32:44;100203.13;;;-5.00;79.19
54806;BME280;62866;55.776;37.496;2023-02-12T15:35:24;100189.31;;;-5.02;79.38
54806;BME280;62866;55.776;37.496;2023-02-12T15:37:51;100189.56;;;-5.06;79.22
54806;BME280;62866;55.776;37.496;2023-02-12T15:40:17;100193.78;;;-5.04;79.26
54806;BME280;62866;55.776;37.496;2023-02-12T15:42:56;100190.34;;;-5.04;79.71